sensor_id;sensor_type;location;lat;lon;timestamp;pressure;altitude;pressure_sealevel;temperature;humidity
64139;BME280;50435;43.700;-79.318;2023-05-12T00:02:15;100301.31;;;25.74;25.61
64139;BME280;50435;43.700;-79.318;2023-05-12T00:04:43;100301.45;;;24.09;25.48
64139;BME280;50435;43.700;-79.318;2023-05-12T00:07:10;100297.81;;;26.09;25.52
64139;BME280;50435;43.700;-79.318;2023-05-12T00:09:38;100302.35;;;24.17;25.34
64139;BME280;50435;43.700;-79.318;2023-05-12T00:12:05;100303.19;;;26.11;25.21
64139;BME280;50435;43.700;-79.318;2023-05-12T00:14:34;100308.11;;;24.98;25.32
64139;BME280;50435;43.700;-79.318;2023-05-12T00:17:02;100311.27;;;25.51;25.43
64139;BME280;50435;43.700;-79.318;2023-05-12T00:19:30;100316.65;;;25.80;25.44
64139;BME280;50435;43.700;-79.318;2023-05-12T00:21:58;100316.49;;;25.41;25.59
64139;BME280;50435;43.700;-79.318;2023-05-12T00:24:25;100312.53;;;25.59;25.54
64139;BME280;50435;43.700;-79.318;2023-05-12T00:26:53;100314.85;;;25.56;25.55
64139;BME280;50435;43.700;-79.318;2023-05-12T00:29:20;100312.42;;;25.34;25.74
64139;BME280;50435;43.700;-79.318;2023-05-12T00:31:47;100313.73;;;24.87;25.84
64139;BME280;50435;43.700;-79.318;2023-05-12T00:34:15;100315.80;;;25.05;25.92
64139;BME280;50435;43.700;-79.318;2023-05-12T00:36:42;100316.36;;;23.47;25.94
64139;BME280;50435;43.700;-79.318;2023-05-12T00:39:10;100318.46;;;25.03;26.06
64139;BME280;50435;43.700;-79.318;2023-05-12T00:41:37;100321.58;;;23.63;26.27
64139;BME280;50435;43.700;-79.318;2023-05-12T00:44:05;100326.15;;;24.63;26.29
64139;BME280;50435;43.700;-79.318;2023-05-12T00:46:32;100324.95;;;24.00;26.33
64139;BME280;50435;43.700;-79.318;2023-05-12T00:49:00;100326.53;;;24.37;26.47
64139;BME280;50435;43.700;-79.318;2023-05-12T00:51:27;100329.54;;;24.68;26.62
64139;BME280;50435;43.700;-79.318;2023-05-12T00:53:55;100331.86;;;24.02;26.86
64139;BME280;50435;43.700;-79.318;2023-05-12T00:56:23;100331.78;;;24.49;26.85
64139;BME280;50435;43.700;-79.318;2023-05-12T00:58:51;100336.30;;;23.76;27.20
64139;BME280;50435;43.700;-79.318;2023-05-12T01:01:19;100333.91;;;24.27;27.11
64139;BME280;50435;43.700;-79.318;2023-05-12T01:03:46;100337.03;;;23.67;27.28
64139;BME280;50435;43.700;-79.318;2023-05-12T01:06:18;100334.79;;;23.98;27.45
64139;BME280;50435;43.700;-79.318;2023-05-12T01:08:48;100339.80;;;23.60;27.60
64139;BME280;50435;43.700;-79.318;2023-05-12T01:11:16;100347.06;;;23.98;27.73
64139;BME280;50435;43.700;-79.318;2023-05-12T01:13:43;100348.79;;;23.22;27.80
64139;BME280;50435;43.700;-79.318;2023-05-12T01:16:12;100349.55;;;23.97;27.98
64139;BME280;50435;43.700;-79.318;2023-05-12T01:18:42;100351.82;;;22.94;27.99
64139;BME280;50435;43.700;-79.318;2023-05-12T01:21:12;100356.21;;;23.83;27.98
64139;BME280;50435;43.700;-79.318;2023-05-12T01:23:45;100355.59;;;22.68;28.10
64139;BME280;50435;43.700;-79.318;2023-05-12T01:26:14;100363.13;;;23.56;28.05
64139;BME280;50435;43.700;-79.318;2023-05-12T01:28:42;100367.11;;;22.29;28.10
64139;BME280;50435;43.700;-79.318;2023-05-12T01:31:11;100371.64;;;23.52;27.97
64139;BME280;50435;43.700;-79.318;2023-05-12T01:33:38;100376.88;;;21.63;28.09
64139;BME280;50435;43.700;-79.318;2023-05-12T01:36:06;100375.89;;;23.10;28.05
64139;BME280;50435;43.700;-79.318;2023-05-12T01:38:33;100380.25;;;22.25;28.07
64139;BME280;50435;43.700;-79.318;2023-05-12T01:41:00;100380.65;;;22.88;28.12
64139;BME280;50435;43.700;-79.318;2023-05-12T01:43:28;100381.01;;;23.03;28.17
64139;BME280;50435;43.700;-79.318;2023-05-12T01:45:55;100383.60;;;23.06;28.06
64139;BME280;50435;43.700;-79.318;2023-05-12T01:48:22;100384.55;;;23.11;28.24
64139;BME280;50435;43.700;-79.318;2023-05-12T01:50:50;100387.64;;;22.30;28.25
64139;BME280;50435;43.700;-79.318;2023-05-12T01:53:18;100389.68;;;22.70;28.31
64139;BME280;50435;43.700;-79.318;2023-05-12T01:55:45;100391.08;;;22.68;28.28
64139;BME280;50435;43.700;-79.318;2023-05-12T01:58:13;100390.85;;;22.69;28.48
64139;BME280;50435;43.700;-79.318;2023-05-12T02:00:40;100388.25;;;20.87;28.64
64139;BME280;50435;43.700;-79.318;2023-05-12T02:03:08;100388.99;;;22.32;28.50
64139;BME280;50435;43.700;-79.318;2023-05-12T02:05:35;100390.63;;;21.36;28.52
64139;BME280;50435;43.700;-79.318;2023-05-12T02:08:03;100388.36;;;22.19;28.58
64139;BME280;50435;43.700;-79.318;2023-05-12T02:10:31;100390.27;;;22.31;28.39
64139;BME280;50435;43.700;-79.318;2023-05-12T02:12:58;100390.42;;;22.93;28.52
64139;BME280;50435;43.700;-79.318;2023-05-12T02:15:26;100388.10;;;22.49;28.99
64139;BME280;50435;43.700;-79.318;2023-05-12T02:17:53;100390.87;;;22.19;29.35
64139;BME280;50435;43.700;-79.318;2023-05-12T02:20:21;100389.46;;;22.07;29.26
64139;BME280;50435;43.700;-79.318;2023-05-12T02:22:48;100385.75;;;21.59;29.27
64139;BME280;50435;43.700;-79.318;2023-05-12T02:25:16;100391.89;;;21.98;29.42
64139;BME280;50435;43.700;-79.318;2023-05-12T02:27:44;100380.89;;;21.09;29.29
64139;BME280;50435;43.700;-79.318;2023-05-12T02:30:11;100391.77;;;21.96;29.40
64139;BME280;50435;43.700;-79.318;2023-05-12T02:32:39;100389.92;;;20.55;29.34
64139;BME280;50435;43.700;-79.318;2023-05-12T02:35:07;100391.80;;;21.88;29.41
64139;BME280;50435;43.700;-79.318;2023-05-12T02:37:35;100394.79;;;20.72;29.59
64139;BME280;50435;43.700;-79.318;2023-05-12T02:40:02;100392.08;;;21.41;29.67
64139;BME280;50435;43.700;-79.318;2023-05-12T02:42:30;100390.77;;;21.64;29.71
64139;BME280;50435;43.700;-79.318;2023-05-12T02:44:57;100384.86;;;21.38;29.94
64139;BME280;50435;43.700;-79.318;2023-05-12T02:47:25;100380.18;;;21.42;29.85
64139;BME280;50435;43.700;-79.318;2023-05-12T02:49:52;100378.93;;;21.34;29.90
64139;BME280;50435;43.700;-79.318;2023-05-12T02:52:20;100381.26;;;21.44;30.05
64139;BME280;50435;43.700;-79.318;2023-05-12T02:54:48;100379.44;;;20.43;30.11
64139;BME280;50435;43.700;-79.318;2023-05-12T02:57:15;100380.08;;;21.36;30.03
64139;BME280;50435;43.700;-79.318;2023-05-12T02:59:43;100375.41;;;19.95;30.04
64139;BME280;50435;43.700;-79.318;2023-05-12T03:02:10;100374.57;;;21.36;30.28
64139;BME280;50435;43.700;-79.318;2023-05-12T03:04:38;100373.41;;;19.93;30.26
64139;BME280;50435;43.700;-79.318;2023-05-12T03:07:07;100376.21;;;21.08;30.29
64139;BME280;50435;43.700;-79.318;2023-05-12T03:09:34;100376.12;;;19.67;30.48
64139;BME280;50435;43.700;-79.318;2023-05-12T03:12:02;100368.08;;;20.60;30.52
64139;BME280;50435;43.700;-79.318;2023-05-12T03:14:30;100364.74;;;21.14;30.45
64139;BME280;50435;43.700;-79.318;2023-05-12T03:16:58;100366.91;;;20.95;30.61
64139;BME280;50435;43.700;-79.318;2023-05-12T03:19:25;100367.58;;;20.86;30.69
64139;BME280;50435;43.700;-79.318;2023-05-12T03:21:53;100363.42;;;20.54;30.75
64139;BME280;50435;43.700;-79.318;2023-05-12T03:24:20;100361.42;;;20.76;30.70
64139;BME280;50435;43.700;-79.318;2023-05-12T03:26:48;100363.35;;;20.09;30.65
64139;BME280;50435;43.700;-79.318;2023-05-12T03:29:15;100369.01;;;21.23;30.60
64139;BME280;50435;43.700;-79.318;2023-05-12T03:31:43;100369.13;;;19.13;30.77
64139;BME280;50435;43.700;-79.318;2023-05-12T03:34:10;100368.33;;;20.84;30.66
64139;BME280;50435;43.700;-79.318;2023-05-12T03:36:37;100370.77;;;19.07;30.73
64139;BME280;50435;43.700;-79.318;2023-05-12T03:39:05;100376.22;;;20.65;30.85
64139;BME280;50435;43.700;-79.318;2023-05-12T03:41:33;100379.39;;;19.91;30.85
64139;BME280;50435;43.700;-79.318;2023-05-12T03:44:01;100381.08;;;20.50;30.96
64139;BME280;50435;43.700;-79.318;2023-05-12T03:46:28;100375.70;;;20.37;31.05
64139;BME280;50435;43.700;-79.318;2023-05-12T03:48:55;100377.68;;;20.14;31.06
64139;BME280;50435;43.700;-79.318;2023-05-12T03:51:23;100376.56;;;20.07;31.09
64139;BME280;50435;43.700;-79.318;2023-05-12T03:53:50;100371.61;;;19.75;31.09
64139;BME280;50435;43.700;-79.318;2023-05-12T03:56:17;100365.98;;;20.39;31.17
64139;BME280;50435;43.700;-79.318;2023-05-12T03:58:45;100370.04;;;18.98;31.11
64139;BME280;50435;43.700;-79.318;2023-05-12T04:01:13;100374.61;;;20.17;31.08
64139;BME280;50435;43.700;-79.318;2023-05-12T04:03:40;100375.29;;;18.87;31.15
64139;BME280;50435;43.700;-79.318;2023-05-12T04:06:08;100369.91;;;20.15;31.31
64139;BME280;50435;43.700;-79.318;2023-05-12T04:08:36;100364.39;;;18.67;31.31
64139;BME280;50435;43.700;-79.318;2023-05-12T04:11:04;100356.94;;;19.88;31.27
64139;BME280;50435;43.700;-79.318;2023-05-12T04:13:31;100356.16;;;19.44;31.17
64139;BME280;50435;43.700;-79.318;2023-05-12T04:16:00;100360.93;;;19.65;31.47
64139;BME280;50435;43.700;-79.318;2023-05-12T04:18:27;100358.70;;;19.94;31.32
64139;BME280;50435;43.700;-79.318;2023-05-12T04:20:55;100357.46;;;19.34;31.44
64139;BME280;50435;43.700;-79.318;2023-05-12T04:23:23;100364.94;;;19.96;31.47
64139;BME280;50435;43.700;-79.318;2023-05-12T04:25:50;100360.87;;;19.15;31.52
64139;BME280;50435;43.700;-79.318;2023-05-12T04:28:18;100358.35;;;19.63;31.49
64139;BME280;50435;43.700;-79.318;2023-05-12T04:30:46;100362.67;;;19.08;31.45
64139;BME280;50435;43.700;-79.318;2023-05-12T04:33:13;100363.97;;;19.23;31.46
64139;BME280;50435;43.700;-79.318;2023-05-12T04:35:41;100362.33;;;18.83;31.35
64139;BME280;50435;43.700;-79.318;2023-05-12T04:38:08;100360.71;;;19.34;31.47
64139;BME280;50435;43.700;-79.318;2023-05-12T04:40:36;100361.54;;;18.39;31.43
64139;BME280;50435;43.700;-79.318;2023-05-12T04:43:04;100362.76;;;19.29;31.43
64139;BME280;50435;43.700;-79.318;2023-05-12T04:45:31;100365.27;;;18.92;31.28
64139;BME280;50435;43.700;-79.318;2023-05-12T04:47:59;100364.92;;;19.28;31.33
64139;BME280;50435;43.700;-79.318;2023-05-12T04:50:27;100364.32;;;19.55;31.26
64139;BME280;50435;43.700;-79.318;2023-05-12T04:52:54;100360.99;;;19.09;31.18
64139;BME280;50435;43.700;-79.318;2023-05-12T04:55:22;100360.35;;;19.13;31.36
64139;BME280;50435;43.700;-79.318;2023-05-12T04:57:50;100369.04;;;18.52;31.56
64139;BME280;50435;43.700;-79.318;2023-05-12T05:00:18;100364.96;;;19.30;31.44
64139;BME280;50435;43.700;-79.318;2023-05-12T05:02:45;100368.27;;;18.53;31.50
64139;BME280;50435;43.700;-79.318;2023-05-12T05:05:13;100371.49;;;19.16;31.54
64139;BME280;50435;43.700;-79.318;2023-05-12T05:07:40;100366.21;;;17.45;31.57
64139;BME280;50435;43.700;-79.318;2023-05-12T05:10:09;100365.71;;;19.13;31.54
64139;BME280;50435;43.700;-79.318;2023-05-12T05:12:37;100362.61;;;18.37;31.65
64139;BME280;50435;43.700;-79.318;2023-05-12T05:15:05;100361.94;;;18.75;31.65
64139;BME280;50435;43.700;-79.318;2023-05-12T05:17:33;100361.23;;;18.33;31.61
64139;BME280;50435;43.700;-79.318;2023-05-12T05:20:01;100358.28;;;18.96;31.68
64139;BME280;50435;43.700;-79.318;2023-05-12T05:22:28;100357.16;;;19.13;31.70
64139;BME280;50435;43.700;-79.318;2023-05-12T05:24:56;100357.12;;;18.84;31.69
64139;BME280;50435;43.700;-79.318;2023-05-12T05:27:24;100355.95;;;18.79;31.76
64139;BME280;50435;43.700;-79.318;2023-05-12T05:29:51;100358.94;;;18.38;31.82
64139;BME280;50435;43.700;-79.318;2023-05-12T05:32:19;100355.28;;;18.69;31.74
64139;BME280;50435;43.700;-79.318;2023-05-12T05:34:47;100357.02;;;17.95;31.79
64139;BME280;50435;43.700;-79.318;2023-05-12T05:37:14;100352.52;;;18.79;31.81
64139;BME280;50435;43.700;-79.318;2023-05-12T05:39:43;100355.23;;;18.08;31.80
64139;BME280;50435;43.700;-79.318;2023-05-12T05:42:10;100356.91;;;18.63;31.99
64139;BME280;50435;43.700;-79.318;2023-05-12T05:44:38;100357.54;;;17.34;32.09
64139;BME280;50435;43.700;-79.318;2023-05-12T05:47:06;100357.93;;;18.66;31.96
64139;BME280;50435;43.700;-79.318;2023-05-12T05:49:33;100361.32;;;17.68;31.96
64139;BME280;50435;43.700;-79.318;2023-05-12T05:52:01;100363.89;;;18.45;32.11
64139;BME280;50435;43.700;-79.318;2023-05-12T05:54:28;100359.18;;;18.92;32.08
64139;BME280;50435;43.700;-79.318;2023-05-12T05:56:56;100361.67;;;18.46;31.75
64139;BME280;50435;43.700;-79.318;2023-05-12T05:59:24;100364.69;;;18.63;31.82
64139;BME280;50435;43.700;-79.318;2023-05-12T06:01:51;100356.24;;;18.44;31.73
64139;BME280;50435;43.700;-79.318;2023-05-12T06:04:18;100356.98;;;18.80;31.58
64139;BME280;50435;43.700;-79.318;2023-05-12T06:06:46;100353.63;;;18.63;31.75
64139;BME280;50435;43.700;-79.318;2023-05-12T06:09:14;100351.55;;;18.27;32.15
64139;BME280;50435;43.700;-79.318;2023-05-12T06:11:42;100349.97;;;16.69;32.39
64139;BME280;50435;43.700;-79.318;2023-05-12T06:14:09;100352.06;;;18.13;32.33
64139;BME280;50435;43.700;-79.318;2023-05-12T06:16:37;100351.08;;;17.03;32.44
64139;BME280;50435;43.700;-79.318;2023-05-12T06:19:04;100349.00;;;17.99;32.41
64139;BME280;50435;43.700;-79.318;2023-05-12T06:21:32;100344.15;;;17.44;32.52
64139;BME280;50435;43.700;-79.318;2023-05-12T06:24:00;100345.08;;;18.11;32.54
64139;BME280;50435;43.700;-79.318;2023-05-12T06:26:28;100346.66;;;18.00;32.73
64139;BME280;50435;43.700;-79.318;2023-05-12T06:28:55;100349.67;;;17.50;32.69
64139;BME280;50435;43.700;-79.318;2023-05-12T06:31:23;100352.41;;;18.16;32.71
64139;BME280;50435;43.700;-79.318;2023-05-12T06:33:51;100349.55;;;17.40;32.69
64139;BME280;50435;43.700;-79.318;2023-05-12T06:36:18;100351.47;;;17.85;32.82
64139;BME280;50435;43.700;-79.318;2023-05-12T06:38:46;100354.20;;;17.17;32.78
64139;BME280;50435;43.700;-79.318;2023-05-12T06:41:14;100347.96;;;17.98;32.90
64139;BME280;50435;43.700;-79.318;2023-05-12T06:43:41;100349.32;;;16.03;32.88
64139;BME280;50435;43.700;-79.318;2023-05-12T06:46:10;100354.86;;;17.52;32.77
64139;BME280;50435;43.700;-79.318;2023-05-12T06:48:37;100353.24;;;16.57;32.76
64139;BME280;50435;43.700;-79.318;2023-05-12T06:51:05;100356.71;;;17.84;33.02
64139;BME280;50435;43.700;-79.318;2023-05-12T06:53:32;100353.03;;;16.82;32.96
64139;BME280;50435;43.700;-79.318;2023-05-12T06:56:00;100356.16;;;17.26;33.05
64139;BME280;50435;43.700;-79.318;2023-05-12T06:58:27;100357.14;;;17.77;32.98
64139;BME280;50435;43.700;-79.318;2023-05-12T07:00:55;100354.53;;;17.29;32.93
64139;BME280;50435;43.700;-79.318;2023-05-12T07:03:23;100361.90;;;17.65;33.16
64139;BME280;50435;43.700;-79.318;2023-05-12T07:05:51;100363.85;;;17.11;33.17
64139;BME280;50435;43.700;-79.318;2023-05-12T07:08:18;100361.14;;;17.54;33.25
64139;BME280;50435;43.700;-79.318;2023-05-12T07:10:46;100363.82;;;16.79;33.24
64139;BME280;50435;43.700;-79.318;2023-05-12T07:13:14;100362.99;;;17.53;33.24
64139;BME280;50435;43.700;-79.318;2023-05-12T07:15:41;100364.19;;;15.57;33.27
64139;BME280;50435;43.700;-79.318;2023-05-12T07:18:09;100362.65;;;17.46;33.11
64139;BME280;50435;43.700;-79.318;2023-05-12T07:20:37;100365.83;;;15.95;33.44
64139;BME280;50435;43.700;-79.318;2023-05-12T07:23:05;100363.96;;;17.15;33.45
64139;BME280;50435;43.700;-79.318;2023-05-12T07:25:32;100364.54;;;16.72;33.42
64139;BME280;50435;43.700;-79.318;2023-05-12T07:28:00;100362.92;;;17.27;33.24
64139;BME280;50435;43.700;-79.318;2023-05-12T07:30:28;100359.03;;;17.53;33.40
64139;BME280;50435;43.700;-79.318;2023-05-12T07:32:55;100358.31;;;16.79;33.44
64139;BME280;50435;43.700;-79.318;2023-05-12T07:35:23;100359.60;;;17.08;33.75
64139;BME280;50435;43.700;-79.318;2023-05-12T07:37:50;100358.62;;;17.29;33.60
64139;BME280;50435;43.700;-79.318;2023-05-12T07:40:18;100357.32;;;17.12;33.93
64139;BME280;50435;43.700;-79.318;2023-05-12T07:42:46;100359.23;;;16.39;34.15
64139;BME280;50435;43.700;-79.318;2023-05-12T07:45:14;100354.92;;;16.89;33.84
64139;BME280;50435;43.700;-79.318;2023-05-12T07:47:42;100353.77;;;16.34;34.06
64139;BME280;50435;43.700;-79.318;2023-05-12T07:50:09;100359.08;;;16.81;34.12
64139;BME280;50435;43.700;-79.318;2023-05-12T07:52:36;100358.03;;;15.70;34.30
64139;BME280;50435;43.700;-79.318;2023-05-12T07:55:11;100361.34;;;16.96;34.05
64139;BME280;50435;43.700;-79.318;2023-05-12T07:57:39;100361.64;;;15.70;34.29
64139;BME280;50435;43.700;-79.318;2023-05-12T08:00:08;100362.44;;;16.91;34.12
64139;BME280;50435;43.700;-79.318;2023-05-12T08:02:36;100359.61;;;15.91;34.26
64139;BME280;50435;43.700;-79.318;2023-05-12T08:05:05;100358.29;;;16.55;34.18
64139;BME280;50435;43.700;-79.318;2023-05-12T08:07:33;100357.28;;;16.21;33.99
64139;BME280;50435;43.700;-79.318;2023-05-12T08:10:00;100357.23;;;16.87;33.87
64139;BME280;50435;43.700;-79.318;2023-05-12T08:12:28;100353.07;;;16.84;33.98
64139;BME280;50435;43.700;-79.318;2023-05-12T08:14:56;100356.15;;;16.62;33.72
64139;BME280;50435;43.700;-79.318;2023-05-12T08:17:24;100350.67;;;17.00;33.53
64139;BME280;50435;43.700;-79.318;2023-05-12T08:19:51;100355.13;;;16.68;33.60
64139;BME280;50435;43.700;-79.318;2023-05-12T08:22:19;100351.34;;;16.48;33.98
64139;BME280;50435;43.700;-79.318;2023-05-12T08:24:47;100350.28;;;16.02;33.68
64139;BME280;50435;43.700;-79.318;2023-05-12T08:27:14;100349.93;;;16.87;33.88
64139;BME280;50435;43.700;-79.318;2023-05-12T08:29:42;100354.18;;;15.74;33.76
64139;BME280;50435;43.700;-79.318;2023-05-12T08:32:09;100354.11;;;16.60;33.85
64139;BME280;50435;43.700;-79.318;2023-05-12T08:34:37;100351.32;;;15.35;33.87
64139;BME280;50435;43.700;-79.318;2023-05-12T08:37:05;100351.97;;;16.52;34.04
64139;BME280;50435;43.700;-79.318;2023-05-12T08:39:32;100352.29;;;16.02;34.12
64139;BME280;50435;43.700;-79.318;2023-05-12T08:42:12;100354.03;;;16.52;33.95
64139;BME280;50435;43.700;-79.318;2023-05-12T08:44:45;100353.55;;;15.91;33.66
64139;BME280;50435;43.700;-79.318;2023-05-12T08:47:14;100356.14;;;16.84;33.74
64139;BME280;50435;43.700;-79.318;2023-05-12T08:49:44;100358.34;;;15.31;33.76
64139;BME280;50435;43.700;-79.318;2023-05-12T08:52:17;100355.92;;;16.48;33.77
64139;BME280;50435;43.700;-79.318;2023-05-12T08:54:44;100358.26;;;15.70;33.79
64139;BME280;50435;43.700;-79.318;2023-05-12T08:57:12;100360.97;;;16.59;33.90
64139;BME280;50435;43.700;-79.318;2023-05-12T08:59:43;100357.35;;;15.07;33.70
64139;BME280;50435;43.700;-79.318;2023-05-12T09:02:11;100360.69;;;16.79;33.58
64139;BME280;50435;43.700;-79.318;2023-05-12T09:04:39;100365.73;;;16.04;33.66
64139;BME280;50435;43.700;-79.318;2023-05-12T09:07:07;100366.92;;;16.60;33.82
64139;BME280;50435;43.700;-79.318;2023-05-12T09:09:37;100368.50;;;15.50;33.68
64139;BME280;50435;43.700;-79.318;2023-05-12T09:12:09;100372.56;;;16.55;33.57
64139;BME280;50435;43.700;-79.318;2023-05-12T09:14:38;100374.26;;;15.23;33.64
64139;BME280;50435;43.700;-79.318;2023-05-12T09:17:07;100371.07;;;16.74;33.48
64139;BME280;50435;43.700;-79.318;2023-05-12T09:19:35;100372.88;;;15.73;33.52
64139;BME280;50435;43.700;-79.318;2023-05-12T09:22:02;100376.26;;;16.72;33.57
64139;BME280;50435;43.700;-79.318;2023-05-12T09:24:34;100379.05;;;16.66;33.02
64139;BME280;50435;43.700;-79.318;2023-05-12T09:27:02;100375.74;;;17.07;32.40
64139;BME280;50435;43.700;-79.318;2023-05-12T09:29:29;100379.91;;;17.04;32.43
64139;BME280;50435;43.700;-79.318;2023-05-12T09:31:58;100380.84;;;14.71;31.90
64139;BME280;50435;43.700;-79.318;2023-05-12T09:34:27;100383.68;;;17.69;31.52
64139;BME280;50435;43.700;-79.318;2023-05-12T09:36:55;100388.91;;;16.15;32.67
64139;BME280;50435;43.700;-79.318;2023-05-12T09:39:23;100389.63;;;16.72;33.29
64139;BME280;50435;43.700;-79.318;2023-05-12T09:41:51;100388.76;;;15.13;33.46
64139;BME280;50435;43.700;-79.318;2023-05-12T09:44:19;100390.49;;;16.31;33.41
64139;BME280;50435;43.700;-79.318;2023-05-12T09:46:47;100390.85;;;15.23;33.91
64139;BME280;50435;43.700;-79.318;2023-05-12T09:49:18;100392.34;;;16.27;33.85
64139;BME280;50435;43.700;-79.318;2023-05-12T09:51:45;100396.35;;;15.53;33.87
64139;BME280;50435;43.700;-79.318;2023-05-12T09:54:23;100402.18;;;16.08;34.09
64139;BME280;50435;43.700;-79.318;2023-05-12T09:56:51;100402.20;;;14.70;34.01
64139;BME280;50435;43.700;-79.318;2023-05-12T09:59:20;100406.19;;;16.07;33.76
64139;BME280;50435;43.700;-79.318;2023-05-12T10:01:48;100409.63;;;15.41;33.72
64139;BME280;50435;43.700;-79.318;2023-05-12T10:04:16;100411.70;;;16.17;34.02
64139;BME280;50435;43.700;-79.318;2023-05-12T10:06:44;100410.49;;;16.18;33.97
64139;BME280;50435;43.700;-79.318;2023-05-12T10:09:18;100414.78;;;15.85;34.06
64139;BME280;50435;43.700;-79.318;2023-05-12T10:11:46;100414.62;;;15.51;33.87
64139;BME280;50435;43.700;-79.318;2023-05-12T10:14:16;100416.78;;;16.24;33.81
64139;BME280;50435;43.700;-79.318;2023-05-12T10:16:44;100418.12;;;16.09;34.00
64139;BME280;50435;43.700;-79.318;2023-05-12T10:19:13;100418.27;;;16.05;34.03
64139;BME280;50435;43.700;-79.318;2023-05-12T10:21:42;100423.40;;;16.33;33.92
64139;BME280;50435;43.700;-79.318;2023-05-12T10:24:09;100424.67;;;15.75;34.02
64139;BME280;50435;43.700;-79.318;2023-05-12T10:26:38;100424.84;;;16.30;33.95
64139;BME280;50435;43.700;-79.318;2023-05-12T10:29:06;100428.47;;;15.65;33.84
64139;BME280;50435;43.700;-79.318;2023-05-12T10:31:35;100431.16;;;16.16;33.78
64139;BME280;50435;43.700;-79.318;2023-05-12T10:34:04;100433.07;;;15.57;33.93
64139;BME280;50435;43.700;-79.318;2023-05-12T10:36:36;100433.52;;;16.02;34.00
64139;BME280;50435;43.700;-79.318;2023-05-12T10:39:08;100431.22;;;15.76;33.97
64139;BME280;50435;43.700;-79.318;2023-05-12T10:41:39;100437.53;;;16.01;34.08
64139;BME280;50435;43.700;-79.318;2023-05-12T10:44:06;100434.24;;;15.69;34.13
64139;BME280;50435;43.700;-79.318;2023-05-12T10:46:33;100437.97;;;16.08;34.02
64139;BME280;50435;43.700;-79.318;2023-05-12T10:49:02;100445.13;;;15.59;34.00
64139;BME280;50435;43.700;-79.318;2023-05-12T10:51:46;100441.79;;;16.09;33.99
64139;BME280;50435;43.700;-79.318;2023-05-12T10:54:19;100446.41;;;16.12;33.98
64139;BME280;50435;43.700;-79.318;2023-05-12T10:56:47;100448.48;;;15.23;33.92
64139;BME280;50435;43.700;-79.318;2023-05-12T10:59:18;100445.34;;;16.18;33.99
64139;BME280;50435;43.700;-79.318;2023-05-12T11:02:03;100448.34;;;15.52;33.91
64139;BME280;50435;43.700;-79.318;2023-05-12T11:04:37;100446.55;;;16.26;33.83
64139;BME280;50435;43.700;-79.318;2023-05-12T11:07:05;100443.57;;;15.66;33.99
64139;BME280;50435;43.700;-79.318;2023-05-12T11:09:35;100445.15;;;16.23;33.94
64139;BME280;50435;43.700;-79.318;2023-05-12T11:12:02;100448.85;;;15.53;33.90
64139;BME280;50435;43.700;-79.318;2023-05-12T11:14:32;100459.19;;;16.28;33.84
64139;BME280;50435;43.700;-79.318;2023-05-12T11:17:00;100472.70;;;15.38;33.76
64139;BME280;50435;43.700;-79.318;2023-05-12T11:19:27;100491.88;;;16.50;33.59
64139;BME280;50435;43.700;-79.318;2023-05-12T11:21:54;100490.87;;;15.00;33.65
64139;BME280;50435;43.700;-79.318;2023-05-12T11:24:22;100491.12;;;16.55;33.56
64139;BME280;50435;43.700;-79.318;2023-05-12T11:26:50;100498.66;;;15.47;33.54
64139;BME280;50435;43.700;-79.318;2023-05-12T11:29:18;100496.05;;;16.44;33.48
64139;BME280;50435;43.700;-79.318;2023-05-12T11:31:47;100498.85;;;16.36;33.46
64139;BME280;50435;43.700;-79.318;2023-05-12T11:34:19;100502.00;;;16.64;33.64
64139;BME280;50435;43.700;-79.318;2023-05-12T11:36:47;100504.09;;;15.69;34.08
64139;BME280;50435;43.700;-79.318;2023-05-12T11:39:16;100506.98;;;16.69;33.98
64139;BME280;50435;43.700;-79.318;2023-05-12T11:41:44;100507.33;;;16.47;34.46
64139;BME280;50435;43.700;-79.318;2023-05-12T11:44:13;100511.02;;;16.51;34.59
64139;BME280;50435;43.700;-79.318;2023-05-12T11:46:41;100510.13;;;16.97;34.62
64139;BME280;50435;43.700;-79.318;2023-05-12T11:49:10;100508.60;;;16.77;34.80
64139;BME280;50435;43.700;-79.318;2023-05-12T11:51:41;100509.91;;;17.14;34.48
64139;BME280;50435;43.700;-79.318;2023-05-12T11:54:09;100510.73;;;16.85;34.45
64139;BME280;50435;43.700;-79.318;2023-05-12T11:56:37;100511.55;;;17.12;34.07
64139;BME280;50435;43.700;-79.318;2023-05-12T11:59:04;100509.22;;;16.78;34.06
64139;BME280;50435;43.700;-79.318;2023-05-12T12:01:42;100507.92;;;17.37;33.91
64139;BME280;50435;43.700;-79.318;2023-05-12T12:04:10;100511.80;;;17.07;33.68
64139;BME280;50435;43.700;-79.318;2023-05-12T12:06:43;100512.85;;;17.39;33.15
64139;BME280;50435;43.700;-79.318;2023-05-12T12:09:10;100514.41;;;17.39;33.28
64139;BME280;50435;43.700;-79.318;2023-05-12T12:11:37;100512.60;;;17.48;32.99
64139;BME280;50435;43.700;-79.318;2023-05-12T12:14:05;100513.36;;;17.10;32.91
64139;BME280;50435;43.700;-79.318;2023-05-12T12:16:32;100514.54;;;17.56;32.65
64139;BME280;50435;43.700;-79.318;2023-05-12T12:18:59;100515.59;;;17.28;32.37
64139;BME280;50435;43.700;-79.318;2023-05-12T12:21:27;100514.90;;;17.31;32.33
64139;BME280;50435;43.700;-79.318;2023-05-12T12:23:54;100518.47;;;16.58;32.11
64139;BME280;50435;43.700;-79.318;2023-05-12T12:26:21;100523.36;;;18.00;32.07
64139;BME280;50435;43.700;-79.318;2023-05-12T12:28:49;100520.26;;;16.69;31.94
64139;BME280;50435;43.700;-79.318;2023-05-12T12:31:17;100524.79;;;17.75;32.06
64139;BME280;50435;43.700;-79.318;2023-05-12T12:33:44;100521.28;;;17.95;31.74
64139;BME280;50435;43.700;-79.318;2023-05-12T12:36:12;100517.97;;;18.18;31.54